createdAt,value
2023-03-17T00:01:56.004Z,8.70
2023-03-17T00:04:24.990Z,8.70
2023-03-17T00:06:53.030Z,8.70
2023-03-17T00:09:21.133Z,8.70
2023-03-17T00:11:49.079Z,8.70
2023-03-17T00:14:16.845Z,8.70
2023-03-17T00:16:48.477Z,8.80
2023-03-17T00:19:33.089Z,8.80
2023-03-17T00:22:01.447Z,8.80
2023-03-17T00:24:29.492Z,8.80
2023-03-17T00:26:56.554Z,8.80
2023-03-17T00:29:24.028Z,8.80
2023-03-17T00:31:51.219Z,8.80
2023-03-17T00:34:19.455Z,8.80
2023-03-17T00:36:51.377Z,8.80
2023-03-17T00:39:19.063Z,8.80
2023-03-17T00:44:12.427Z,8.80
2023-03-17T00:46:41.486Z,8.80
2023-03-17T00:51:44.828Z,8.70
2023-03-17T00:54:12.930Z,8.70
2023-03-17T00:56:41.656Z,8.70
2023-03-17T00:59:30.026Z,8.80
2023-03-17T01:01:57.427Z,8.80
2023-03-17T01:04:24.407Z,8.70
2023-03-17T01:06:52.369Z,8.80
2023-03-17T01:09:24.226Z,8.80
2023-03-17T01:11:51.470Z,8.80
2023-03-17T01:14:18.578Z,8.80
2023-03-17T01:16:45.597Z,8.80
2023-03-17T01:19:13.620Z,8.80
2023-03-17T01:21:40.824Z,8.80
2023-03-17T01:24:08.482Z,8.80
2023-03-17T01:26:35.445Z,8.80
2023-03-17T01:29:02.435Z,8.80
2023-03-17T01:31:29.573Z,8.80
2023-03-17T01:33:56.969Z,8.80
2023-03-17T01:36:23.966Z,8.80
2023-03-17T01:38:51.098Z,8.80
2023-03-17T01:41:19.184Z,8.80
2023-03-17T01:43:46.445Z,8.80
2023-03-17T01:46:27.990Z,8.80
2023-03-17T01:49:26.635Z,8.80
2023-03-17T01:52:01.044Z,8.80
2023-03-17T01:54:50.603Z,8.70
2023-03-17T01:57:32.744Z,8.70
2023-03-17T02:00:09.644Z,8.70
2023-03-17T02:02:39.576Z,8.70
2023-03-17T02:05:11.487Z,8.70
2023-03-17T02:07:38.550Z,8.70
2023-03-17T02:10:06.780Z,8.70
2023-03-17T02:12:35.121Z,8.70
2023-03-17T02:15:03.350Z,8.70
2023-03-17T02:17:30.405Z,8.70
2023-03-17T02:20:11.764Z,8.70
2023-03-17T02:22:38.645Z,8.70
2023-03-17T02:25:06.510Z,8.70
2023-03-17T02:27:37.614Z,8.60
2023-03-17T02:30:07.508Z,8.70
2023-03-17T02:32:38.925Z,8.60
2023-03-17T02:35:07.329Z,8.60
2023-03-17T02:37:34.758Z,8.60
2023-03-17T02:40:02.700Z,8.60
2023-03-17T02:42:29.767Z,8.50
2023-03-17T02:44:56.777Z,8.50
2023-03-17T02:47:23.832Z,8.50
2023-03-17T02:49:51.270Z,8.50
2023-03-17T02:52:18.204Z,8.60
2023-03-17T02:54:45.282Z,8.60
2023-03-17T02:57:12.321Z,8.60
2023-03-17T02:59:39.274Z,8.60
2023-03-17T03:02:06.387Z,8.50
2023-03-17T03:04:33.368Z,8.50
2023-03-17T03:07:00.433Z,8.50
2023-03-17T03:09:27.522Z,8.50
2023-03-17T03:11:54.451Z,8.50
2023-03-17T03:14:21.813Z,8.50
2023-03-17T03:16:49.850Z,8.50
2023-03-17T03:19:16.822Z,8.50
2023-03-17T03:21:43.724Z,8.50
2023-03-17T03:24:11.096Z,8.40
2023-03-17T03:26:38.342Z,8.40
2023-03-17T03:29:05.647Z,8.40
2023-03-17T03:31:32.606Z,8.40
2023-03-17T03:33:59.701Z,8.40
2023-03-17T03:36:27.567Z,8.40
2023-03-17T03:38:54.596Z,8.40
2023-03-17T03:41:22.138Z,8.40
2023-03-17T03:43:49.170Z,8.40
2023-03-17T03:46:16.731Z,8.40
2023-03-17T03:48:43.789Z,8.40
2023-03-17T03:51:10.956Z,8.40
2023-03-17T03:53:37.911Z,8.40
2023-03-17T03:56:05.309Z,8.40
2023-03-17T03:58:32.215Z,8.40
2023-03-17T04:00:59.262Z,8.40
2023-03-17T04:03:27.079Z,8.40
2023-03-17T04:05:54.015Z,8.40
2023-03-17T04:08:21.067Z,8.40
2023-03-17T04:10:47.939Z,8.40
2023-03-17T04:13:15.501Z,8.40
2023-03-17T04:15:42.608Z,8.40
2023-03-17T04:18:09.794Z,8.40
2023-03-17T04:20:36.824Z,8.40
2023-03-17T04:23:04.076Z,8.40
2023-03-17T04:25:31.563Z,8.30
2023-03-17T04:27:58.580Z,8.30
2023-03-17T04:30:25.544Z,8.30
2023-03-17T04:32:52.561Z,8.30
2023-03-17T04:35:22.746Z,8.30
2023-03-17T04:37:50.475Z,8.20
2023-03-17T04:40:18.751Z,8.20
2023-03-17T04:42:45.735Z,8.20
2023-03-17T04:45:15.592Z,8.20
2023-03-17T04:47:43.122Z,8.20
2023-03-17T04:50:10.976Z,8.20
2023-03-17T04:52:38.126Z,8.20
2023-03-17T04:55:08.326Z,8.20
2023-03-17T04:57:36.720Z,8.10
2023-03-17T05:00:06.355Z,8.10
2023-03-17T05:02:33.297Z,8.10
2023-03-17T05:05:00.503Z,8.10
2023-03-17T05:07:27.534Z,8.10
2023-03-17T05:09:54.548Z,8.10
2023-03-17T05:12:21.528Z,8.10
2023-03-17T05:14:48.678Z,8.10
2023-03-17T05:17:15.629Z,8.10
2023-03-17T05:19:43.144Z,8.10
2023-03-17T05:22:10.535Z,8.10
2023-03-17T05:24:37.465Z,8.20
2023-03-17T05:27:04.585Z,8.10
2023-03-17T05:29:31.633Z,8.20
2023-03-17T05:31:58.529Z,8.20
2023-03-17T05:34:25.839Z,8.20
2023-03-17T05:36:53.079Z,8.20
2023-03-17T05:39:20.044Z,8.20
2023-03-17T05:41:47.229Z,8.20
2023-03-17T05:44:14.584Z,8.30
2023-03-17T05:46:42.109Z,8.30
2023-03-17T05:49:09.066Z,8.30
2023-03-17T05:51:37.065Z,8.30
2023-03-17T05:54:04.618Z,8.40
2023-03-17T05:56:33.849Z,8.40
2023-03-17T05:59:02.048Z,8.40
2023-03-17T06:01:29.718Z,8.40
2023-03-17T06:03:57.273Z,8.40
2023-03-17T06:06:24.732Z,8.50
2023-03-17T06:08:51.808Z,8.50
2023-03-17T06:11:20.737Z,8.50
2023-03-17T06:13:47.895Z,8.50
2023-03-17T06:16:15.168Z,8.50
2023-03-17T06:18:42.269Z,8.60
2023-03-17T06:21:09.215Z,8.60
2023-03-17T06:23:36.708Z,8.70
2023-03-17T06:26:04.029Z,8.80
2023-03-17T06:28:31.335Z,8.90
2023-03-17T06:30:58.623Z,9.00
2023-03-17T06:33:26.151Z,9.10
2023-03-17T06:35:53.532Z,9.00
2023-03-17T06:38:20.964Z,9.00
2023-03-17T06:40:48.073Z,9.00
2023-03-17T06:43:15.114Z,9.00
2023-03-17T06:45:42.199Z,9.00
2023-03-17T06:48:09.358Z,9.00
2023-03-17T06:50:36.466Z,9.00
2023-03-17T06:53:03.482Z,8.90
2023-03-17T06:55:32.008Z,9.00
2023-03-17T06:57:59.332Z,9.00
2023-03-17T07:00:27.615Z,9.00
2023-03-17T07:02:54.661Z,9.00
2023-03-17T07:05:22.849Z,9.10
2023-03-17T07:07:50.208Z,9.10
2023-03-17T07:10:18.129Z,9.20
2023-03-17T07:12:45.781Z,9.20
2023-03-17T07:15:13.010Z,9.20
2023-03-17T07:17:40.038Z,9.20
2023-03-17T07:20:07.621Z,9.20
2023-03-17T07:22:34.731Z,9.20
2023-03-17T07:25:01.865Z,9.30
2023-03-17T07:27:29.310Z,9.30
2023-03-17T07:29:56.942Z,9.40
2023-03-17T07:32:24.750Z,9.50
2023-03-17T07:34:51.816Z,9.60
2023-03-17T07:37:19.502Z,9.70
2023-03-17T07:39:47.418Z,9.80
2023-03-17T07:42:15.746Z,9.90
2023-03-17T07:44:43.464Z,10.00
2023-03-17T07:47:13.506Z,10.20
2023-03-17T07:49:42.435Z,10.50
2023-03-17T07:52:10.882Z,10.70
2023-03-17T07:54:38.259Z,11.10
2023-03-17T07:57:06.488Z,11.60
2023-03-17T07:59:34.044Z,12.00
2023-03-17T08:02:01.803Z,11.90
2023-03-17T08:04:29.416Z,11.60
2023-03-17T08:06:57.577Z,11.50
2023-03-17T08:09:24.847Z,11.40
2023-03-17T08:11:51.965Z,11.30
2023-03-17T08:14:19.409Z,11.20
2023-03-17T08:16:46.486Z,11.20
2023-03-17T08:19:13.493Z,11.10
2023-03-17T08:21:40.497Z,11.00
2023-03-17T08:24:08.216Z,11.00
2023-03-17T08:26:35.368Z,11.00
2023-03-17T08:29:02.355Z,10.90
2023-03-17T08:31:29.467Z,10.90
2023-03-17T08:33:57.404Z,10.90
2023-03-17T08:36:24.745Z,10.90
2023-03-17T08:38:51.967Z,10.80
2023-03-17T08:41:22.909Z,10.80
2023-03-17T08:43:51.712Z,10.80
2023-03-17T08:46:26.135Z,10.80
2023-03-17T08:48:56.485Z,10.80
2023-03-17T08:51:26.651Z,10.90
2023-03-17T08:53:55.025Z,11.00
2023-03-17T08:56:22.906Z,11.10
2023-03-17T08:58:50.947Z,11.30
2023-03-17T09:01:20.935Z,11.30
2023-03-17T09:03:48.634Z,11.50
2023-03-17T09:06:15.709Z,11.70
2023-03-17T09:08:49.828Z,12.00
2023-03-17T09:11:18.131Z,12.30
2023-03-17T09:13:46.662Z,12.40
2023-03-17T09:16:16.421Z,12.60
2023-03-17T09:18:44.063Z,13.00
2023-03-17T09:21:13.769Z,13.70
2023-03-17T09:23:41.717Z,14.30
2023-03-17T09:26:09.130Z,15.00
2023-03-17T09:28:36.251Z,15.30
2023-03-17T09:31:06.350Z,15.00
2023-03-17T09:33:33.669Z,14.70
2023-03-17T09:36:00.761Z,14.70
2023-03-17T09:38:28.420Z,15.20
2023-03-17T09:41:18.547Z,15.60
2023-03-17T09:43:54.264Z,15.60
2023-03-17T09:46:42.835Z,15.60
2023-03-17T09:49:17.538Z,16.10
2023-03-17T09:51:46.465Z,16.60
2023-03-17T09:54:29.607Z,16.80
2023-03-17T09:57:09.916Z,16.70
2023-03-17T09:59:47.519Z,16.40
2023-03-17T10:02:30.316Z,16.50
2023-03-17T10:04:58.226Z,16.90
2023-03-17T10:07:51.306Z,17.30
2023-03-17T10:10:49.671Z,17.60
2023-03-17T10:13:22.861Z,17.50
2023-03-17T10:15:59.216Z,17.70
2023-03-17T10:18:30.550Z,17.60
2023-03-17T10:21:01.703Z,17.30
2023-03-17T10:23:32.519Z,17.20
2023-03-17T10:26:08.269Z,17.20
2023-03-17T10:28:38.756Z,17.50
2023-03-17T10:31:17.972Z,17.80
2023-03-17T10:33:49.249Z,18.10
2023-03-17T10:36:17.972Z,18.10
2023-03-17T10:38:54.279Z,18.90
2023-03-17T10:41:22.143Z,19.90
2023-03-17T10:43:53.748Z,20.70
2023-03-17T10:46:24.447Z,21.10
2023-03-17T10:48:55.344Z,21.70
2023-03-17T10:51:46.360Z,22.30
2023-03-17T10:54:18.840Z,22.70
2023-03-17T10:56:49.210Z,22.90
2023-03-17T10:59:28.697Z,23.20
2023-03-17T11:02:00.733Z,23.40
2023-03-17T11:04:37.422Z,23.60
2023-03-17T11:07:20.418Z,24.00
2023-03-17T11:09:51.646Z,24.00
2023-03-17T11:12:27.911Z,23.40
2023-03-17T11:14:59.720Z,23.10
2023-03-17T11:17:49.974Z,22.60
2023-03-17T11:20:33.074Z,22.50
2023-03-17T11:23:12.474Z,22.30
2023-03-17T11:25:43.417Z,21.90
2023-03-17T11:28:22.744Z,22.10
2023-03-17T11:30:57.660Z,22.30
2023-03-17T11:33:51.467Z,22.70
2023-03-17T11:36:50.766Z,22.60
2023-03-17T11:39:26.127Z,22.80
2023-03-17T11:42:32.142Z,23.40
2023-03-17T11:45:14.710Z,23.80
2023-03-17T11:48:21.430Z,24.40
2023-03-17T11:51:16.220Z,24.30
2023-03-17T11:54:14.476Z,24.30
2023-03-17T11:56:57.010Z,24.30
2023-03-17T11:59:33.108Z,24.40
2023-03-17T12:02:39.502Z,24.80
2023-03-17T12:05:11.311Z,24.80
2023-03-17T12:07:54.859Z,24.90
2023-03-17T12:10:28.785Z,24.80
2023-03-17T12:12:58.116Z,24.50
2023-03-17T12:16:07.401Z,24.40
2023-03-17T12:18:48.715Z,24.40
2023-03-17T12:21:24.833Z,24.40
2023-03-17T12:24:02.374Z,24.80
2023-03-17T12:26:37.913Z,24.90
2023-03-17T12:29:33.448Z,24.90
2023-03-17T12:32:26.551Z,24.60
2023-03-17T12:34:59.740Z,23.80
2023-03-17T12:37:28.274Z,23.70
2023-03-17T12:40:01.657Z,23.90
2023-03-17T12:42:47.478Z,23.60
2023-03-17T12:45:33.046Z,23.10
2023-03-17T12:48:26.073Z,22.70
2023-03-17T12:51:17.958Z,22.30
2023-03-17T12:53:48.013Z,22.30
2023-03-17T12:56:26.647Z,22.30
2023-03-17T12:58:59.122Z,22.60
2023-03-17T13:01:52.084Z,22.90
2023-03-17T13:04:38.071Z,23.10
2023-03-17T13:07:05.349Z,22.80
2023-03-17T13:09:32.963Z,22.10
2023-03-17T13:12:02.312Z,21.30
2023-03-17T13:14:47.003Z,20.80
2023-03-17T13:17:17.789Z,20.50
2023-03-17T13:19:55.501Z,20.30
2023-03-17T13:22:22.370Z,20.00
2023-03-17T13:24:51.980Z,19.90
2023-03-17T13:27:34.272Z,19.60
2023-03-17T13:30:25.828Z,19.40
2023-03-17T13:32:59.630Z,19.00
2023-03-17T13:35:46.140Z,18.80
2023-03-17T13:38:46.772Z,18.60
2023-03-17T13:41:38.027Z,18.30
2023-03-17T13:44:25.296Z,18.10
2023-03-17T13:46:52.556Z,18.00
2023-03-17T13:49:19.772Z,18.20
2023-03-17T13:52:17.774Z,18.50
2023-03-17T13:54:50.692Z,19.30
2023-03-17T13:57:35.211Z,20.00
2023-03-17T14:00:45.722Z,20.40
2023-03-17T14:03:40.133Z,20.10
2023-03-17T14:06:12.004Z,19.90
2023-03-17T14:08:48.357Z,20.20
2023-03-17T14:11:27.894Z,20.70
2023-03-17T14:14:32.052Z,21.00
2023-03-17T14:17:33.372Z,21.00
2023-03-17T14:20:18.589Z,20.70
2023-03-17T14:22:48.357Z,20.20
2023-03-17T14:25:18.128Z,19.60
2023-03-17T14:27:53.115Z,19.00
2023-03-17T14:30:26.534Z,18.70
2023-03-17T14:33:26.266Z,18.40
2023-03-17T14:35:56.426Z,18.20
2023-03-17T14:38:25.544Z,18.00
2023-03-17T14:41:00.383Z,17.90
2023-03-17T14:43:27.648Z,17.90
2023-03-17T14:46:05.385Z,17.80
2023-03-17T14:48:41.033Z,17.70
2023-03-17T14:51:23.737Z,17.60
2023-03-17T14:53:52.805Z,17.40
2023-03-17T14:56:37.564Z,17.40
2023-03-17T14:59:20.531Z,17.40
2023-03-17T15:01:48.683Z,17.50
2023-03-17T15:04:23.968Z,17.40
2023-03-17T15:07:06.696Z,17.50
2023-03-17T15:09:33.654Z,17.40
2023-03-17T15:12:07.194Z,17.30
2023-03-17T15:14:38.865Z,17.30
2023-03-17T15:17:14.434Z,17.40
2023-03-17T15:19:45.608Z,17.40
2023-03-17T15:22:26.057Z,17.40
2023-03-17T15:25:19.315Z,17.40
2023-03-17T15:27:48.284Z,17.30
2023-03-17T15:30:15.767Z,17.30
2023-03-17T15:32:43.553Z,17.30
2023-03-17T15:35:14.415Z,17.30
2023-03-17T15:37:43.770Z,17.20
2023-03-17T15:40:11.709Z,17.20
2023-03-17T15:42:39.881Z,17.20
2023-03-17T15:45:07.971Z,17.20
2023-03-17T15:47:37.093Z,17.20
2023-03-17T15:50:23.959Z,17.20
2023-03-17T15:52:56.236Z,17.20
2023-03-17T15:55:26.349Z,17.10
2023-03-17T15:57:55.523Z,17.10
2023-03-17T16:00:24.959Z,17.10
2023-03-17T16:02:54.453Z,17.00
2023-03-17T16:05:33.627Z,17.00
2023-03-17T16:08:00.792Z,16.90
2023-03-17T16:10:32.526Z,16.90
2023-03-17T16:13:00.008Z,16.80
2023-03-17T16:15:31.313Z,16.80
2023-03-17T16:18:04.581Z,16.80
2023-03-17T16:20:42.838Z,16.80
2023-03-17T16:23:14.528Z,16.80
2023-03-17T16:25:41.853Z,16.70
2023-03-17T16:28:28.891Z,16.60
2023-03-17T16:30:57.559Z,16.60
2023-03-17T16:33:32.396Z,16.50
2023-03-17T16:36:01.039Z,16.50
2023-03-17T16:38:31.381Z,16.50
2023-03-17T16:41:13.355Z,16.50
2023-03-17T16:43:43.712Z,16.40
2023-03-17T16:46:12.404Z,16.40
2023-03-17T16:48:39.425Z,16.40
2023-03-17T16:51:07.097Z,16.30
2023-03-17T16:53:34.114Z,16.30
2023-03-17T16:56:01.127Z,16.20
2023-03-17T16:58:34.621Z,16.20
2023-03-17T17:01:06.475Z,16.20
2023-03-17T17:03:33.389Z,16.10
2023-03-17T17:06:00.489Z,16.10
2023-03-17T17:08:27.424Z,16.10
2023-03-17T17:10:54.448Z,16.00
2023-03-17T17:13:21.521Z,16.00
2023-03-17T17:15:48.887Z,15.90
2023-03-17T17:18:21.858Z,15.90
2023-03-17T17:20:49.431Z,15.90
2023-03-17T17:23:25.139Z,15.90
2023-03-17T17:25:53.250Z,15.90
2023-03-17T17:28:22.897Z,15.80
2023-03-17T17:30:51.607Z,15.80
2023-03-17T17:33:20.320Z,15.80
2023-03-17T17:35:48.674Z,15.70
2023-03-17T17:38:28.277Z,15.70
2023-03-17T17:40:57.383Z,15.60
2023-03-17T17:43:25.094Z,15.60
2023-03-17T17:45:53.056Z,15.60
2023-03-17T17:48:23.493Z,15.50
2023-03-17T17:50:52.629Z,15.50
2023-03-17T17:53:20.056Z,15.50
2023-03-17T17:55:48.726Z,15.50
2023-03-17T17:58:18.434Z,15.40
2023-03-17T18:00:45.931Z,15.30
2023-03-17T18:03:13.086Z,15.30
2023-03-17T18:05:40.212Z,15.30
2023-03-17T18:08:07.169Z,15.30
2023-03-17T18:10:35.008Z,15.30
2023-03-17T18:13:02.092Z,15.20
2023-03-17T18:15:29.461Z,15.20
2023-03-17T18:17:56.801Z,15.20
2023-03-17T18:20:25.110Z,15.10
2023-03-17T18:22:52.908Z,15.00
2023-03-17T18:25:20.542Z,15.00
2023-03-17T18:27:48.486Z,15.00
2023-03-17T18:30:27.424Z,15.00
2023-03-17T18:33:03.979Z,15.00
2023-03-17T18:35:31.615Z,15.00
2023-03-17T18:37:59.062Z,14.90
2023-03-17T18:40:26.667Z,14.90
2023-03-17T18:42:54.426Z,14.90
2023-03-17T18:45:21.381Z,14.80
2023-03-17T18:47:48.316Z,14.80
2023-03-17T18:50:16.495Z,14.80
2023-03-17T18:52:44.868Z,14.60
2023-03-17T18:55:13.689Z,14.50
2023-03-17T18:57:44.358Z,14.40
2023-03-17T19:00:13.952Z,14.30
2023-03-17T19:02:40.962Z,14.10
2023-03-17T19:05:08.624Z,14.10
2023-03-17T19:07:35.865Z,14.00
2023-03-17T19:10:04.688Z,14.00
2023-03-17T19:12:32.001Z,13.90
2023-03-17T19:14:59.253Z,13.90
2023-03-17T19:17:26.220Z,13.90
2023-03-17T19:19:53.220Z,13.80
2023-03-17T19:22:20.230Z,13.70
2023-03-17T19:24:50.188Z,13.70
2023-03-17T19:27:18.101Z,13.70
2023-03-17T19:29:45.528Z,13.70
2023-03-17T19:32:12.602Z,13.70
2023-03-17T19:34:39.687Z,13.60
2023-03-17T19:37:06.568Z,13.60
2023-03-17T19:39:34.071Z,13.60
2023-03-17T19:42:01.477Z,13.60
2023-03-17T19:44:28.608Z,13.60
2023-03-17T19:46:55.882Z,13.50
2023-03-17T19:49:22.919Z,13.50
2023-03-17T19:51:50.311Z,13.40
2023-03-17T19:54:18.728Z,13.40
2023-03-17T19:56:45.925Z,13.40
2023-03-17T19:59:14.734Z,13.30
2023-03-17T20:01:42.389Z,13.30
2023-03-17T20:04:11.515Z,13.20
2023-03-17T20:06:38.635Z,13.20
2023-03-17T20:09:08.795Z,13.10
2023-03-17T20:11:36.089Z,13.10
2023-03-17T20:14:03.649Z,13.00
2023-03-17T20:16:33.737Z,12.90
2023-03-17T20:19:01.640Z,12.90
2023-03-17T20:21:28.838Z,12.80
2023-03-17T20:23:56.369Z,12.70
2023-03-17T20:26:24.577Z,12.70
2023-03-17T20:28:51.845Z,12.60
2023-03-17T20:31:19.344Z,12.60
2023-03-17T20:33:46.395Z,12.50
2023-03-17T20:36:14.135Z,12.50
2023-03-17T20:38:43.730Z,12.40
2023-03-17T20:41:17.210Z,12.50
2023-03-17T20:43:46.046Z,12.40
2023-03-17T20:46:19.787Z,12.40
2023-03-17T20:48:51.598Z,12.40
2023-03-17T20:51:20.011Z,12.40
2023-03-17T20:53:50.064Z,12.30
2023-03-17T20:56:19.840Z,12.30
2023-03-17T20:58:48.461Z,12.30
2023-03-17T21:01:18.230Z,12.30
2023-03-17T21:03:47.273Z,12.20
2023-03-17T21:06:14.922Z,12.20
2023-03-17T21:08:42.514Z,12.20
2023-03-17T21:11:16.130Z,12.10
2023-03-17T21:13:44.319Z,12.10
2023-03-17T21:16:19.794Z,12.10
2023-03-17T21:18:47.564Z,12.10
2023-03-17T21:21:15.215Z,12.10
2023-03-17T21:23:42.615Z,12.10
2023-03-17T21:26:10.817Z,12.10
2023-03-17T21:28:41.219Z,12.10
2023-03-17T21:31:10.060Z,12.10
2023-03-17T21:33:37.247Z,12.10
2023-03-17T21:36:05.257Z,12.10
2023-03-17T21:38:32.745Z,12.10
2023-03-17T21:41:39.315Z,12.10
2023-03-17T21:44:07.938Z,12.10
2023-03-17T21:46:34.971Z,12.10
2023-03-17T21:49:02.295Z,12.10
2023-03-17T21:51:29.881Z,12.10
2023-03-17T21:53:57.796Z,12.10
2023-03-17T21:56:24.922Z,12.10
2023-03-17T21:58:51.964Z,12.20
2023-03-17T22:01:21.726Z,12.20
2023-03-17T22:03:49.928Z,12.10
2023-03-17T22:06:17.118Z,12.20
2023-03-17T22:08:45.725Z,12.20
2023-03-17T22:11:18.139Z,12.10
2023-03-17T22:13:46.177Z,12.20
2023-03-17T22:16:14.096Z,12.20
2023-03-17T22:18:41.651Z,12.20
2023-03-17T22:21:10.165Z,12.30
2023-03-17T22:23:41.637Z,12.30
2023-03-17T22:26:14.242Z,12.40
2023-03-17T22:28:42.281Z,12.40
2023-03-17T22:31:14.925Z,12.40
2023-03-17T22:33:44.195Z,12.50
2023-03-17T22:36:12.239Z,12.40
2023-03-17T22:38:40.408Z,12.50
2023-03-17T22:41:10.417Z,12.50
2023-03-17T22:43:37.874Z,12.50
2023-03-17T22:46:06.176Z,12.50
2023-03-17T22:48:35.940Z,12.60
2023-03-17T22:51:16.921Z,12.60
2023-03-17T22:53:44.718Z,12.60
2023-03-17T22:56:13.379Z,12.70
2023-03-17T22:58:40.573Z,12.70
2023-03-17T23:01:08.783Z,12.70
2023-03-17T23:03:36.300Z,12.80
2023-03-17T23:06:05.413Z,12.80
2023-03-17T23:08:35.312Z,12.90
2023-03-17T23:11:06.182Z,12.90
2023-03-17T23:13:33.942Z,12.90
2023-03-17T23:16:01.069Z,13.00
2023-03-17T23:18:28.845Z,12.90
2023-03-17T23:20:55.898Z,12.90
2023-03-17T23:23:22.784Z,12.90
2023-03-17T23:25:49.842Z,12.90
2023-03-17T23:28:16.771Z,12.90
2023-03-17T23:30:45.791Z,12.90
2023-03-17T23:33:14.190Z,12.90
2023-03-17T23:35:41.240Z,12.90
2023-03-17T23:38:08.873Z,12.90
2023-03-17T23:40:36.370Z,12.90
2023-03-17T23:43:05.566Z,12.90
2023-03-17T23:45:34.385Z,12.90
2023-03-17T23:48:01.722Z,12.90
2023-03-17T23:50:29.092Z,12.90
2023-03-17T23:52:56.109Z,12.90
2023-03-17T23:55:23.189Z,12.90
2023-03-17T23:57:50.763Z,12.90
